Time,TemperatureF,DewpointF,PressureIn,WindDirection,WindDirectionDegrees,WindSpeedMPH,WindSpeedGustMPH,Humidity,HourlyPrecipIn,Conditions,Clouds,dailyrainin,SoftwareType,DateUTC
2013-11-04 00:00:00,64.0,47.0,30.18,ENE,70,18.0,22.0,53,-99.99,,,-99.99,,2013-11-04 06:00:00,
2013-11-04 00:42:00,64.0,47.0,30.18,ENE,70,18.0,22.0,53,-99.99,,,-99.99,,2013-11-04 06:42:00,
2013-11-04 00:52:00,64.0,47.0,30.18,ENE,70,18.0,22.0,53,-99.99,,,-99.99,,2013-11-04 06:52:00,
2013-11-04 01:00:00,63.0,45.0,30.17,ENE,70,23.0,26.0,51,-99.99,,,-99.99,,2013-11-04 07:00:00,
2013-11-04 01:42:00,63.0,45.0,30.17,ENE,70,23.0,26.0,51,-99.99,,,-99.99,,2013-11-04 07:42:00,
2013-11-04 01:52:00,63.0,45.0,30.17,ENE,70,23.0,26.0,51,-99.99,,,-99.99,,2013-11-04 07:52:00,
2013-11-04 02:00:00,63.0,49.0,30.17,ENE,70,21.0,23.0,61,-99.99,,,-99.99,,2013-11-04 08:00:00,
2013-11-04 02:42:00,63.0,49.0,30.17,ENE,70,21.0,23.0,61,-99.99,,,-99.99,,2013-11-04 08:42:00,
2013-11-04 02:52:00,63.0,49.0,30.17,ENE,70,21.0,23.0,61,-99.99,,,-99.99,,2013-11-04 08:52:00,
2013-11-04 03:00:00,62.0,51.0,30.16,ENE,70,21.0,22.0,65,-99.99,,,-99.99,,2013-11-04 09:00:00,
2013-11-04 03:43:00,62.0,51.0,30.16,ENE,70,21.0,22.0,65,-99.99,,,-99.99,,2013-11-04 09:43:00,
2013-11-04 03:53:00,62.0,51.0,30.16,ENE,70,21.0,22.0,65,-99.99,,,-99.99,,2013-11-04 09:53:00,
2013-11-04 04:00:00,62.0,52.0,30.16,ENE,60,17.0,20.0,69,-99.99,,,-99.99,,2013-11-04 10:00:00,
2013-11-04 04:42:00,62.0,52.0,30.16,ENE,60,17.0,20.0,69,-99.99,,,-99.99,,2013-11-04 10:42:00,
2013-11-04 04:52:00,62.0,52.0,30.16,ENE,60,17.0,20.0,69,-99.99,,,-99.99,,2013-11-04 10:52:00,
2013-11-04 05:00:00,62.0,53.0,30.18,ENE,60,20.0,22.0,71,-99.99,,,-99.99,,2013-11-04 11:00:00,
2013-11-04 05:42:00,62.0,53.0,30.18,ENE,60,20.0,22.0,71,-99.99,,,-99.99,,2013-11-04 11:42:00,
2013-11-04 05:52:00,62.0,53.0,30.18,ENE,60,20.0,22.0,71,-99.99,,,-99.99,,2013-11-04 11:52:00,
2013-11-04 06:00:00,61.0,53.0,30.19,ENE,60,18.0,20.0,73,-99.99,,,-99.99,,2013-11-04 12:00:00,
2013-11-04 06:41:00,61.0,53.0,30.19,ENE,60,18.0,20.0,73,-99.99,,,-99.99,,2013-11-04 12:41:00,
2013-11-04 06:52:00,61.0,53.0,30.19,ENE,60,18.0,20.0,73,-99.99,,,-99.99,,2013-11-04 12:52:00,
2013-11-04 07:00:00,61.0,53.0,30.20,ENE,60,21.0,23.0,75,-99.99,,,-99.99,,2013-11-04 13:00:00,
2013-11-04 07:42:00,61.0,53.0,30.20,ENE,60,21.0,23.0,75,-99.99,,,-99.99,,2013-11-04 13:42:00,
2013-11-04 07:52:00,61.0,53.0,30.20,ENE,60,21.0,23.0,75,-99.99,,,-99.99,,2013-11-04 13:52:00,
2013-11-04 08:00:00,62.0,53.0,30.22,ENE,70,22.0,24.0,74,-99.99,,,-99.99,,2013-11-04 14:00:00,
2013-11-04 08:42:00,62.0,53.0,30.22,ENE,70,22.0,24.0,74,-99.99,,,-99.99,,2013-11-04 14:42:00,
2013-11-04 08:52:00,62.0,53.0,30.22,ENE,70,22.0,24.0,74,-99.99,,,-99.99,,2013-11-04 14:52:00,
2013-11-04 09:00:00,63.0,53.0,30.24,ENE,70,25.0,29.0,70,-99.99,,,-99.99,,2013-11-04 15:00:00,
2013-11-04 09:41:00,63.0,53.0,30.24,ENE,70,25.0,29.0,70,-99.99,,,-99.99,,2013-11-04 15:41:00,
2013-11-04 09:52:00,63.0,53.0,30.24,ENE,70,25.0,29.0,70,-99.99,,,-99.99,,2013-11-04 15:52:00,
2013-11-04 10:00:00,64.0,52.0,30.26,ENE,60,21.0,23.0,65,-99.99,,,-99.99,,2013-11-04 16:00:00,
2013-11-04 10:43:00,64.0,52.0,30.26,ENE,60,21.0,23.0,65,-99.99,,,-99.99,,2013-11-04 16:43:00,
2013-11-04 10:53:00,64.0,52.0,30.26,ENE,60,21.0,23.0,65,-99.99,,,-99.99,,2013-11-04 16:53:00,
2013-11-04 11:00:00,65.0,54.0,30.27,ENE,60,21.0,23.0,67,-99.99,,,-99.99,,2013-11-04 17:00:00,
2013-11-04 11:42:00,65.0,54.0,30.27,ENE,60,21.0,23.0,67,-99.99,,,-99.99,,2013-11-04 17:42:00,
2013-11-04 11:53:00,65.0,54.0,30.27,ENE,60,21.0,23.0,67,-99.99,,,-99.99,,2013-11-04 17:53:00,
2013-11-04 12:00:00,65.0,55.0,30.23,ENE,70,21.0,25.0,69,-99.99,,,-99.99,,2013-11-04 18:00:00,
2013-11-04 12:42:00,65.0,55.0,30.23,ENE,70,21.0,25.0,69,-99.99,,,-99.99,,2013-11-04 18:42:00,
2013-11-04 12:52:00,65.0,55.0,30.23,ENE,70,21.0,25.0,69,-99.99,,,-99.99,,2013-11-04 18:52:00,
2013-11-04 14:00:00,68.0,56.0,30.21,East,80,17.0,20.0,66,-99.99,,,-99.99,,2013-11-04 20:00:00,
2013-11-04 14:42:00,68.0,56.0,30.21,East,80,17.0,20.0,66,-99.99,,,-99.99,,2013-11-04 20:42:00,
2013-11-04 14:52:00,68.0,56.0,30.21,East,80,17.0,20.0,66,-99.99,,,-99.99,,2013-11-04 20:52:00,
2013-11-04 15:00:00,69.0,56.0,30.20,ENE,70,15.0,17.0,65,-99.99,,,-99.99,,2013-11-04 21:00:00,
2013-11-04 15:44:00,69.0,56.0,30.20,ENE,70,15.0,17.0,65,-99.99,,,-99.99,,2013-11-04 21:44:00,
2013-11-04 15:53:00,69.0,56.0,30.20,ENE,70,15.0,17.0,65,-99.99,,,-99.99,,2013-11-04 21:53:00,
2013-11-04 16:00:00,69.0,59.0,30.19,ENE,70,15.0,17.0,70,-99.99,,,-99.99,,2013-11-04 22:00:00,
2013-11-04 16:42:00,69.0,59.0,30.19,ENE,70,15.0,17.0,70,-99.99,,,-99.99,,2013-11-04 22:42:00,
2013-11-04 16:53:00,69.0,59.0,30.19,ENE,70,15.0,17.0,70,-99.99,,,-99.99,,2013-11-04 22:53:00,
2013-11-04 17:00:00,69.0,57.0,30.19,East,80,16.0,18.0,65,-99.99,,,-99.99,,2013-11-04 23:00:00,
2013-11-04 17:43:00,69.0,57.0,30.19,East,80,16.0,18.0,65,-99.99,,,-99.99,,2013-11-04 23:43:00,
2013-11-04 17:53:00,69.0,57.0,30.19,East,80,16.0,18.0,65,-99.99,,,-99.99,,2013-11-04 23:53:00,
2013-11-04 18:00:00,70.0,56.0,30.20,ENE,70,16.0,18.0,62,-99.99,,,-99.99,,2013-11-05 00:00:00,
2013-11-04 18:42:00,70.0,56.0,30.20,ENE,70,16.0,18.0,62,-99.99,,,-99.99,,2013-11-05 00:42:00,
2013-11-04 18:52:00,70.0,56.0,30.20,ENE,70,16.0,18.0,62,-99.99,,,-99.99,,2013-11-05 00:52:00,
2013-11-04 19:00:00,69.0,55.0,30.20,ENE,60,21.0,23.0,60,-99.99,,,-99.99,,2013-11-05 01:00:00,
2013-11-04 19:42:00,69.0,55.0,30.20,ENE,60,21.0,23.0,60,-99.99,,,-99.99,,2013-11-05 01:42:00,
2013-11-04 19:52:00,69.0,55.0,30.20,ENE,60,21.0,23.0,60,-99.99,,,-99.99,,2013-11-05 01:52:00,
2013-11-04 20:00:00,69.0,56.0,30.21,ENE,60,21.0,25.0,62,-99.99,,,-99.99,,2013-11-05 02:00:00,
2013-11-04 20:42:00,69.0,56.0,30.21,ENE,60,21.0,25.0,62,-99.99,,,-99.99,,2013-11-05 02:42:00,
2013-11-04 20:52:00,69.0,56.0,30.21,ENE,60,21.0,25.0,62,-99.99,,,-99.99,,2013-11-05 02:52:00,
2013-11-04 21:00:00,68.0,56.0,30.22,ENE,70,21.0,24.0,65,-99.99,,,-99.99,,2013-11-05 03:00:00,
2013-11-04 21:44:00,68.0,56.0,30.22,ENE,70,21.0,24.0,65,-99.99,,,-99.99,,2013-11-05 03:44:00,
2013-11-04 21:54:00,68.0,56.0,30.22,ENE,70,21.0,24.0,65,-99.99,,,-99.99,,2013-11-05 03:54:00,
2013-11-04 22:00:00,68.0,57.0,30.20,East,80,22.0,24.0,69,-99.99,,,-99.99,,2013-11-05 04:00:00,
2013-11-04 22:43:00,68.0,57.0,30.20,East,80,22.0,24.0,69,-99.99,,,-99.99,,2013-11-05 04:43:00,
2013-11-04 22:53:00,68.0,57.0,30.20,East,80,22.0,24.0,69,-99.99,,,-99.99,,2013-11-05 04:53:00,
2013-11-04 23:00:00,67.0,57.0,30.20,ENE,70,24.0,26.0,69,-99.99,,,-99.99,,2013-11-05 05:00:00,
2013-11-04 23:43:00,67.0,57.0,30.20,ENE,70,24.0,26.0,69,-99.99,,,-99.99,,2013-11-05 05:43:00,
2013-11-04 23:53:00,67.0,57.0,30.20,ENE,70,24.0,26.0,69,-99.99,,,-99.99,,2013-11-05 05:53:00,